createdAt,value
2018-01-12T00:00:51.876Z,995.24
2018-01-12T00:01:51.866Z,995.26
2018-01-12T00:02:52.310Z,995.3
2018-01-12T00:03:51.851Z,995.3
2018-01-12T00:04:51.842Z,995.3
2018-01-12T00:05:51.835Z,995.31
2018-01-12T00:06:51.826Z,995.32
2018-01-12T00:07:51.820Z,995.33
2018-01-12T00:08:51.868Z,995.34
2018-01-12T00:09:51.803Z,995.34
2018-01-12T00:10:51.794Z,995.3
2018-01-12T00:11:51.790Z,995.33
2018-01-12T00:12:51.778Z,995.34
2018-01-12T00:13:51.770Z,995.33
2018-01-12T00:14:51.762Z,995.36
2018-01-12T00:15:51.752Z,995.38
2018-01-12T00:16:51.745Z,995.35
2018-01-12T00:17:51.737Z,995.4
2018-01-12T00:18:51.729Z,995.37
2018-01-12T00:19:51.725Z,995.41
2018-01-12T00:20:51.712Z,995.4
2018-01-12T00:21:51.705Z,995.41
2018-01-12T00:22:51.696Z,995.43
2018-01-12T00:23:51.687Z,995.47
2018-01-12T00:24:51.681Z,995.45
2018-01-12T00:25:51.672Z,995.46
2018-01-12T00:26:51.663Z,995.46
2018-01-12T00:27:51.654Z,995.49
2018-01-12T00:28:51.648Z,995.48
2018-01-12T00:29:51.640Z,995.5
2018-01-12T00:30:51.636Z,995.48
2018-01-12T00:31:51.623Z,995.45
2018-01-12T00:32:51.615Z,995.53
2018-01-12T00:33:51.609Z,995.49
2018-01-12T00:34:51.600Z,995.48
2018-01-12T00:35:51.590Z,995.51
2018-01-12T00:36:51.584Z,995.51
2018-01-12T00:37:51.574Z,995.51
2018-01-12T00:38:51.567Z,995.51
2018-01-12T00:39:51.559Z,995.5
2018-01-12T00:40:51.555Z,995.48
2018-01-12T00:41:51.544Z,995.47
2018-01-12T00:42:51.534Z,995.5
2018-01-12T00:43:51.529Z,995.5
2018-01-12T00:44:51.519Z,995.47
2018-01-12T00:45:51.511Z,995.51
2018-01-12T00:46:51.512Z,995.53
2018-01-12T00:47:51.502Z,995.52
2018-01-12T00:48:51.489Z,995.53
2018-01-12T00:49:51.479Z,995.51
2018-01-12T00:50:51.475Z,995.52
2018-01-12T00:51:51.462Z,995.54
2018-01-12T00:52:51.455Z,995.5
2018-01-12T00:53:51.446Z,995.56
2018-01-12T00:54:51.443Z,995.55
2018-01-12T00:55:51.432Z,995.57
2018-01-12T00:56:51.423Z,995.6
2018-01-12T00:57:51.416Z,995.64
2018-01-12T00:58:51.407Z,995.66
2018-01-12T00:59:51.400Z,995.68
2018-01-12T01:00:51.392Z,995.66
2018-01-12T01:01:51.384Z,995.66
2018-01-12T01:02:51.378Z,995.68
2018-01-12T01:03:51.666Z,995.71
2018-01-12T01:04:51.359Z,995.7
2018-01-12T01:05:51.351Z,995.71
2018-01-12T01:06:51.347Z,995.76
2018-01-12T01:07:51.337Z,995.72
2018-01-12T01:08:51.328Z,995.69
2018-01-12T01:09:51.321Z,995.69
2018-01-12T01:10:51.312Z,995.71
2018-01-12T01:11:51.305Z,995.72
2018-01-12T01:12:51.297Z,995.66
2018-01-12T01:13:51.290Z,995.69
2018-01-12T01:14:51.281Z,995.73
2018-01-12T01:15:51.283Z,995.72
2018-01-12T01:16:51.268Z,995.77
2018-01-12T01:17:51.264Z,995.7
2018-01-12T01:18:51.505Z,995.74
2018-01-12T01:19:51.249Z,995.73
2018-01-12T01:20:51.235Z,995.74
2018-01-12T01:21:51.234Z,995.75
2018-01-12T01:22:51.222Z,995.76
2018-01-12T01:23:51.213Z,995.8
2018-01-12T01:24:51.205Z,995.78
2018-01-12T01:25:51.196Z,995.76
2018-01-12T01:26:51.190Z,995.8
2018-01-12T01:27:51.182Z,995.79
2018-01-12T01:28:51.173Z,995.79
2018-01-12T01:29:51.165Z,995.79
2018-01-12T01:30:51.158Z,995.81
2018-01-12T01:31:51.153Z,995.8
2018-01-12T01:32:51.142Z,995.79
2018-01-12T01:33:51.585Z,995.8
2018-01-12T01:34:51.133Z,995.83
2018-01-12T01:35:51.120Z,995.85
2018-01-12T01:36:51.113Z,995.83
2018-01-12T01:37:51.105Z,995.82
2018-01-12T01:38:51.098Z,995.85
2018-01-12T01:39:51.098Z,995.78
2018-01-12T01:40:51.081Z,995.83
2018-01-12T01:41:51.079Z,995.86
2018-01-12T01:42:51.070Z,995.86
2018-01-12T01:43:51.057Z,995.87
2018-01-12T01:44:51.061Z,995.91
2018-01-12T01:45:51.044Z,995.89
2018-01-12T01:46:51.036Z,995.9
2018-01-12T01:47:51.029Z,995.94
2018-01-12T01:48:51.022Z,995.93
2018-01-12T01:49:51.013Z,995.92
2018-01-12T01:50:51.004Z,995.86
2018-01-12T01:51:51.002Z,995.93
2018-01-12T01:52:50.989Z,995.9
2018-01-12T01:53:50.982Z,995.91
2018-01-12T01:54:50.976Z,995.89
2018-01-12T01:55:50.967Z,995.92
2018-01-12T01:56:50.960Z,995.88
2018-01-12T01:57:50.954Z,995.96
2018-01-12T01:58:50.944Z,995.97
2018-01-12T01:59:50.936Z,996.02
2018-01-12T02:00:50.929Z,996
2018-01-12T02:01:50.924Z,996.01
2018-01-12T02:02:50.916Z,996
2018-01-12T02:03:50.974Z,996.03
2018-01-12T02:04:50.900Z,996.01
2018-01-12T02:05:50.891Z,996
2018-01-12T02:06:50.884Z,996.01
2018-01-12T02:07:50.878Z,996
2018-01-12T02:08:50.870Z,995.99
2018-01-12T02:09:50.861Z,996.05
2018-01-12T02:10:50.902Z,996.04
2018-01-12T02:11:50.857Z,996.01
2018-01-12T02:12:50.888Z,996
2018-01-12T02:13:50.832Z,995.98
2018-01-12T02:14:50.826Z,996.04
2018-01-12T02:15:50.820Z,996.02
2018-01-12T02:16:50.821Z,996.01
2018-01-12T02:17:50.802Z,995.97
2018-01-12T02:18:50.796Z,996.02
2018-01-12T02:19:50.788Z,995.98
2018-01-12T02:20:50.780Z,996.03
2018-01-12T02:21:50.773Z,996.09
2018-01-12T02:22:50.766Z,996.1
2018-01-12T02:23:50.768Z,996.11
2018-01-12T02:24:50.766Z,996.12
2018-01-12T02:25:50.746Z,996.12
2018-01-12T02:26:50.754Z,996.09
2018-01-12T02:27:50.727Z,996.13
2018-01-12T02:28:50.720Z,996.13
2018-01-12T02:29:50.715Z,996.14
2018-01-12T02:30:50.706Z,996.12
2018-01-12T02:31:50.697Z,996.14
2018-01-12T02:32:50.690Z,996.15
2018-01-12T02:33:50.686Z,996.15
2018-01-12T02:34:50.674Z,996.16
2018-01-12T02:35:50.670Z,996.19
2018-01-12T02:36:50.660Z,996.14
2018-01-12T02:37:50.652Z,996.15
2018-01-12T02:38:50.646Z,996.18
2018-01-12T02:39:50.637Z,996.17
2018-01-12T02:40:50.630Z,996.2
2018-01-12T02:41:50.625Z,996.21
2018-01-12T02:42:50.621Z,996.15
2018-01-12T02:43:50.619Z,996.16
2018-01-12T02:44:50.605Z,996.12
2018-01-12T02:45:50.594Z,996.18
2018-01-12T02:46:50.586Z,996.17
2018-01-12T02:47:50.584Z,996.17
2018-01-12T02:48:50.574Z,996.18
2018-01-12T02:49:50.569Z,996.22
2018-01-12T02:50:50.557Z,996.22
2018-01-12T02:51:50.560Z,996.22
2018-01-12T02:52:50.541Z,996.21
2018-01-12T02:53:50.534Z,996.22
2018-01-12T02:54:50.527Z,996.23
2018-01-12T02:55:50.524Z,996.21
2018-01-12T02:56:50.513Z,996.28
2018-01-12T02:57:50.506Z,996.25
2018-01-12T02:58:50.497Z,996.26
2018-01-12T02:59:50.496Z,996.27
2018-01-12T03:00:50.480Z,996.25
2018-01-12T03:01:50.475Z,996.28
2018-01-12T03:02:50.468Z,996.25
2018-01-12T03:03:50.459Z,996.28
2018-01-12T03:04:51.703Z,996.25
2018-01-12T03:05:50.445Z,996.27
2018-01-12T03:06:50.445Z,996.25
2018-01-12T03:07:50.432Z,996.29
2018-01-12T03:08:50.421Z,996.26
2018-01-12T03:09:50.413Z,996.22
2018-01-12T03:10:50.408Z,996.25
2018-01-12T03:11:50.403Z,996.29
2018-01-12T03:12:50.393Z,996.31
2018-01-12T03:13:50.389Z,996.32
2018-01-12T03:14:50.390Z,996.35
2018-01-12T03:15:50.427Z,996.33
2018-01-12T03:16:50.372Z,996.32
2018-01-12T03:17:50.363Z,996.3
2018-01-12T03:18:50.359Z,996.33
2018-01-12T03:19:50.347Z,996.32
2018-01-12T03:20:50.341Z,996.31
2018-01-12T03:21:50.329Z,996.36
2018-01-12T03:22:50.321Z,996.39
2018-01-12T03:23:50.313Z,996.39
2018-01-12T03:24:50.306Z,996.4
2018-01-12T03:25:50.298Z,996.39
2018-01-12T03:26:50.294Z,996.42
2018-01-12T03:27:50.300Z,996.39
2018-01-12T03:28:50.285Z,996.35
2018-01-12T03:29:50.264Z,996.44
2018-01-12T03:30:50.258Z,996.42
2018-01-12T03:31:50.252Z,996.39
2018-01-12T03:32:50.243Z,996.43
2018-01-12T03:33:50.261Z,996.44
2018-01-12T03:34:50.228Z,996.43
2018-01-12T03:35:50.222Z,996.47
2018-01-12T03:36:50.222Z,996.45
2018-01-12T03:37:50.204Z,996.44
2018-01-12T03:38:50.198Z,996.49
2018-01-12T03:39:50.190Z,996.51
2018-01-12T03:40:50.182Z,996.53
2018-01-12T03:41:50.191Z,996.51
2018-01-12T03:42:50.170Z,996.51
2018-01-12T03:43:50.167Z,996.52
2018-01-12T03:44:50.153Z,996.54
2018-01-12T03:45:50.144Z,996.55
2018-01-12T03:46:50.137Z,996.55
2018-01-12T03:47:50.130Z,996.55
2018-01-12T03:48:50.122Z,996.56
2018-01-12T03:49:50.115Z,996.59
2018-01-12T03:50:50.106Z,996.57
2018-01-12T03:51:50.100Z,996.56
2018-01-12T03:52:50.091Z,996.54
2018-01-12T03:53:50.087Z,996.57
2018-01-12T03:54:50.077Z,996.55
2018-01-12T03:55:50.071Z,996.54
2018-01-12T03:56:50.063Z,996.53
2018-01-12T03:57:50.054Z,996.58
2018-01-12T03:58:50.045Z,996.55
2018-01-12T03:59:50.043Z,996.56
2018-01-12T04:00:50.032Z,996.53
2018-01-12T04:01:50.025Z,996.54
2018-01-12T04:02:50.017Z,996.52
2018-01-12T04:03:50.018Z,996.53
2018-01-12T04:04:50.002Z,996.53
2018-01-12T04:05:49.993Z,996.57
2018-01-12T04:06:49.989Z,996.6
2018-01-12T04:07:50.007Z,996.58
2018-01-12T04:08:49.976Z,996.63
2018-01-12T04:09:49.966Z,996.61
2018-01-12T04:10:49.963Z,996.61
2018-01-12T04:11:49.952Z,996.63
2018-01-12T04:12:49.943Z,996.62
2018-01-12T04:13:49.933Z,996.57
2018-01-12T04:14:49.928Z,996.61
2018-01-12T04:15:49.922Z,996.64
2018-01-12T04:16:49.912Z,996.62
2018-01-12T04:17:49.909Z,996.58
2018-01-12T04:18:49.913Z,996.59
2018-01-12T04:19:49.892Z,996.61
2018-01-12T04:20:50.683Z,996.56
2018-01-12T04:21:49.873Z,996.61
2018-01-12T04:22:49.874Z,996.62
2018-01-12T04:23:49.862Z,996.61
2018-01-12T04:24:49.856Z,996.62
2018-01-12T04:25:49.845Z,996.6
2018-01-12T04:26:49.838Z,996.64
2018-01-12T04:27:49.830Z,996.6
2018-01-12T04:28:49.823Z,996.59
2018-01-12T04:29:49.816Z,996.6
2018-01-12T04:30:49.808Z,996.6
2018-01-12T04:31:49.800Z,996.59
2018-01-12T04:32:49.792Z,996.58
2018-01-12T04:33:49.784Z,996.58
2018-01-12T04:34:49.780Z,996.62
2018-01-12T04:35:49.771Z,996.66
2018-01-12T04:36:49.762Z,996.65
2018-01-12T04:37:49.754Z,996.67
2018-01-12T04:38:49.748Z,996.64
2018-01-12T04:39:49.744Z,996.67
2018-01-12T04:40:49.735Z,996.67
2018-01-12T04:41:49.724Z,996.61
2018-01-12T04:42:49.717Z,996.64
2018-01-12T04:43:49.707Z,996.63
2018-01-12T04:44:49.702Z,996.67
2018-01-12T04:45:49.699Z,996.63
2018-01-12T04:46:49.689Z,996.66
2018-01-12T04:47:49.679Z,996.7
2018-01-12T04:48:49.679Z,996.68
2018-01-12T04:49:49.660Z,996.71
2018-01-12T04:50:49.652Z,996.72
2018-01-12T04:51:49.646Z,996.75
2018-01-12T04:52:49.637Z,996.76
2018-01-12T04:53:49.632Z,996.77
2018-01-12T04:54:49.622Z,996.77
2018-01-12T04:55:49.614Z,996.82
2018-01-12T04:56:49.610Z,996.82
2018-01-12T04:57:49.600Z,996.87
2018-01-12T04:58:49.596Z,996.84
2018-01-12T04:59:49.586Z,996.89
2018-01-12T05:00:49.577Z,996.94
2018-01-12T05:01:49.572Z,996.9
2018-01-12T05:02:49.574Z,996.93
2018-01-12T05:03:49.555Z,996.92
2018-01-12T05:04:49.546Z,996.92
2018-01-12T05:05:49.543Z,996.91
2018-01-12T05:06:49.533Z,996.96
2018-01-12T05:07:49.525Z,996.94
2018-01-12T05:08:49.545Z,996.97
2018-01-12T05:09:49.513Z,996.96
2018-01-12T05:10:49.502Z,996.96
2018-01-12T05:11:49.493Z,996.98
2018-01-12T05:12:49.486Z,997.01
2018-01-12T05:13:49.479Z,996.99
2018-01-12T05:14:49.471Z,997.01
2018-01-12T05:15:49.462Z,997.01
2018-01-12T05:16:49.460Z,997
2018-01-12T05:17:49.450Z,996.98
2018-01-12T05:18:49.440Z,996.99
2018-01-12T05:19:49.432Z,996.98
2018-01-12T05:20:49.425Z,996.98
2018-01-12T05:21:50.467Z,997.05
2018-01-12T05:22:49.413Z,997.04
2018-01-12T05:23:49.399Z,997.1
2018-01-12T05:24:49.391Z,997.08
2018-01-12T05:25:49.385Z,997.07
2018-01-12T05:26:49.382Z,997.11
2018-01-12T05:27:49.434Z,997.1
2018-01-12T05:28:49.362Z,997.15
2018-01-12T05:29:49.357Z,997.13
2018-01-12T05:30:49.346Z,997.12
2018-01-12T05:31:49.337Z,997.16
2018-01-12T05:32:49.335Z,997.18
2018-01-12T05:33:49.322Z,997.14
2018-01-12T05:34:49.314Z,997.12
2018-01-12T05:35:49.307Z,997.15
2018-01-12T05:36:49.299Z,997.15
2018-01-12T05:37:49.291Z,997.13
2018-01-12T05:38:49.291Z,997.15
2018-01-12T05:39:49.276Z,997.18
2018-01-12T05:40:49.267Z,997.17
2018-01-12T05:41:49.260Z,997.19
2018-01-12T05:42:49.252Z,997.22
2018-01-12T05:43:49.246Z,997.21
2018-01-12T05:44:49.236Z,997.23
2018-01-12T05:45:49.236Z,997.23
2018-01-12T05:46:49.236Z,997.25
2018-01-12T05:47:49.221Z,997.21
2018-01-12T05:48:49.207Z,997.22
2018-01-12T05:49:49.198Z,997.22
2018-01-12T05:50:49.190Z,997.27
2018-01-12T05:51:49.183Z,997.24
2018-01-12T05:52:49.181Z,997.24
2018-01-12T05:53:49.168Z,997.31
2018-01-12T05:54:49.163Z,997.31
2018-01-12T05:55:49.152Z,997.28
2018-01-12T05:56:49.145Z,997.24
2018-01-12T05:57:49.136Z,997.27
2018-01-12T05:58:49.128Z,997.27
2018-01-12T05:59:49.120Z,997.28
2018-01-12T06:00:49.113Z,997.3
2018-01-12T06:01:49.106Z,997.27
2018-01-12T06:02:49.097Z,997.3
2018-01-12T06:03:49.089Z,997.3
2018-01-12T06:04:49.081Z,997.31
2018-01-12T06:05:49.074Z,997.34
2018-01-12T06:06:49.066Z,997.33
2018-01-12T06:07:50.421Z,997.4
2018-01-12T06:08:49.051Z,997.42
2018-01-12T06:09:49.042Z,997.47
2018-01-12T06:10:49.034Z,997.52
2018-01-12T06:11:49.032Z,997.51
2018-01-12T06:12:49.016Z,997.5
2018-01-12T06:13:49.008Z,997.51
2018-01-12T06:14:49.002Z,997.5
2018-01-12T06:15:48.994Z,997.5
2018-01-12T06:16:48.987Z,997.54
2018-01-12T06:17:48.978Z,997.54
2018-01-12T06:18:48.969Z,997.58
2018-01-12T06:19:48.966Z,997.54
2018-01-12T06:20:48.953Z,997.55
2018-01-12T06:21:48.943Z,997.58
2018-01-12T06:22:48.939Z,997.59
2018-01-12T06:23:48.931Z,997.55
2018-01-12T06:24:48.930Z,997.58
2018-01-12T06:25:48.911Z,997.62
2018-01-12T06:26:48.904Z,997.64
2018-01-12T06:27:48.897Z,997.6
2018-01-12T06:28:48.888Z,997.61
2018-01-12T06:29:48.883Z,997.64
2018-01-12T06:30:48.879Z,997.66
2018-01-12T06:31:48.885Z,997.65
2018-01-12T06:32:48.857Z,997.64
2018-01-12T06:33:48.849Z,997.67
2018-01-12T06:34:48.840Z,997.67
2018-01-12T06:35:48.833Z,997.67
2018-01-12T06:36:48.825Z,997.7
2018-01-12T06:37:48.818Z,997.69
2018-01-12T06:38:48.809Z,997.69
2018-01-12T06:39:48.802Z,997.67
2018-01-12T06:40:48.796Z,997.67
2018-01-12T06:41:48.785Z,997.7
2018-01-12T06:42:48.779Z,997.71
2018-01-12T06:43:48.770Z,997.7
2018-01-12T06:44:48.764Z,997.67
2018-01-12T06:45:48.754Z,997.67
2018-01-12T06:46:48.746Z,997.69
2018-01-12T06:47:48.738Z,997.69
2018-01-12T06:48:48.733Z,997.69
2018-01-12T06:49:48.722Z,997.75
2018-01-12T06:50:48.714Z,997.73
2018-01-12T06:51:48.706Z,997.7
2018-01-12T06:52:48.700Z,997.7
2018-01-12T06:53:48.696Z,997.7
2018-01-12T06:54:48.683Z,997.76
2018-01-12T06:55:48.676Z,997.78
2018-01-12T06:56:48.668Z,997.75
2018-01-12T06:57:48.659Z,997.73
2018-01-12T06:58:48.651Z,997.77
2018-01-12T06:59:48.644Z,997.78
2018-01-12T07:00:48.678Z,997.76
2018-01-12T07:01:48.631Z,997.76
2018-01-12T07:02:48.619Z,997.73
2018-01-12T07:03:48.611Z,997.78
2018-01-12T07:04:48.605Z,997.85
2018-01-12T07:05:48.596Z,997.84
2018-01-12T07:06:48.588Z,997.83
2018-01-12T07:07:48.592Z,997.83
2018-01-12T07:08:50.375Z,997.84
2018-01-12T07:09:48.565Z,997.86
2018-01-12T07:10:48.557Z,997.87
2018-01-12T07:11:48.551Z,997.85
2018-01-12T07:12:48.543Z,997.89
2018-01-12T07:13:48.539Z,997.84
2018-01-12T07:14:48.537Z,997.91
2018-01-12T07:15:48.518Z,997.93
2018-01-12T07:16:48.511Z,997.89
2018-01-12T07:17:48.502Z,997.97
2018-01-12T07:18:48.493Z,997.96
2018-01-12T07:19:48.486Z,997.96
2018-01-12T07:20:48.479Z,997.97
2018-01-12T07:21:48.470Z,997.99
2018-01-12T07:22:48.462Z,997.99
2018-01-12T07:23:48.453Z,997.97
2018-01-12T07:24:48.448Z,997.98
2018-01-12T07:25:48.438Z,998
2018-01-12T07:26:48.432Z,998.04
2018-01-12T07:27:48.426Z,998.01
2018-01-12T07:28:48.413Z,998.07
2018-01-12T07:29:48.408Z,998.01
2018-01-12T07:30:48.398Z,998.09
2018-01-12T07:31:48.452Z,998.07
2018-01-12T07:32:48.383Z,998.1
2018-01-12T07:33:48.377Z,998.09
2018-01-12T07:34:48.367Z,998.1
2018-01-12T07:35:48.359Z,998.14
2018-01-12T07:36:48.356Z,998.08
2018-01-12T07:37:48.345Z,998.13
2018-01-12T07:38:48.336Z,998.13
2018-01-12T07:39:48.329Z,998.16
2018-01-12T07:40:48.322Z,998.13
2018-01-12T07:41:48.314Z,998.21
2018-01-12T07:42:48.305Z,998.19
2018-01-12T07:43:48.300Z,998.17
2018-01-12T07:44:48.300Z,998.15
2018-01-12T07:45:48.282Z,998.14
2018-01-12T07:46:48.279Z,998.18
2018-01-12T07:47:48.267Z,998.2
2018-01-12T07:48:48.257Z,998.18
2018-01-12T07:49:48.252Z,998.23
2018-01-12T07:50:48.245Z,998.17
2018-01-12T07:51:48.236Z,998.14
2018-01-12T07:52:48.228Z,998.14
2018-01-12T07:53:48.224Z,998.17
2018-01-12T07:54:48.213Z,998.17
2018-01-12T07:55:48.205Z,998.15
2018-01-12T07:56:48.197Z,998.14
2018-01-12T07:57:48.189Z,998.17
2018-01-12T07:58:48.182Z,998.14
2018-01-12T07:59:48.174Z,998.13
2018-01-12T08:00:48.201Z,998.13
2018-01-12T08:01:48.160Z,998.11
2018-01-12T08:02:48.152Z,998.1
2018-01-12T08:03:48.144Z,998.12
2018-01-12T08:04:48.135Z,998.1
2018-01-12T08:05:48.128Z,998.16
2018-01-12T08:06:48.122Z,998.14
2018-01-12T08:07:48.111Z,998.13
2018-01-12T08:08:48.137Z,998.12
2018-01-12T08:09:48.097Z,998.12
2018-01-12T08:10:48.088Z,998.14
2018-01-12T08:11:48.090Z,998.14
2018-01-12T08:12:48.073Z,998.14
2018-01-12T08:13:48.065Z,998.17
2018-01-12T08:14:48.076Z,998.15
2018-01-12T08:15:48.050Z,998.13
2018-01-12T08:16:48.042Z,998.14
2018-01-12T08:17:48.039Z,998.19
2018-01-12T08:18:48.026Z,998.17
2018-01-12T08:19:48.024Z,998.22
2018-01-12T08:20:48.012Z,998.21
2018-01-12T08:21:48.004Z,998.25
2018-01-12T08:22:47.999Z,998.26
2018-01-12T08:23:47.991Z,998.27
2018-01-12T08:24:48.235Z,998.28
2018-01-12T08:25:47.974Z,998.25
2018-01-12T08:26:47.968Z,998.28
2018-01-12T08:27:47.960Z,998.25
2018-01-12T08:28:47.954Z,998.27
2018-01-12T08:29:47.946Z,998.29
2018-01-12T08:30:47.940Z,998.27
2018-01-12T08:31:47.932Z,998.32
2018-01-12T08:32:47.924Z,998.32
2018-01-12T08:33:47.925Z,998.28
2018-01-12T08:34:47.914Z,998.26
2018-01-12T08:35:47.904Z,998.27
2018-01-12T08:36:47.900Z,998.29
2018-01-12T08:37:47.890Z,998.26
2018-01-12T08:38:47.884Z,998.29
2018-01-12T08:39:47.876Z,998.27
2018-01-12T08:40:47.873Z,998.25
2018-01-12T08:41:47.873Z,998.24
2018-01-12T08:42:47.854Z,998.3
2018-01-12T08:43:47.847Z,998.3
2018-01-12T08:44:47.839Z,998.29
2018-01-12T08:45:47.832Z,998.31
2018-01-12T08:46:47.827Z,998.3
2018-01-12T08:47:47.821Z,998.3
2018-01-12T08:48:47.813Z,998.28
2018-01-12T08:49:47.808Z,998.34
2018-01-12T08:50:47.798Z,998.34
2018-01-12T08:51:47.790Z,998.32
2018-01-12T08:52:47.784Z,998.37
2018-01-12T08:53:47.776Z,998.36
2018-01-12T08:54:47.769Z,998.36
2018-01-12T08:55:47.763Z,998.4
2018-01-12T08:56:47.757Z,998.38
2018-01-12T08:57:47.751Z,998.4
2018-01-12T08:58:47.745Z,998.42
2018-01-12T08:59:47.737Z,998.39
2018-01-12T09:00:47.732Z,998.44
2018-01-12T09:01:47.725Z,998.42
2018-01-12T09:02:47.716Z,998.4
2018-01-12T09:03:47.713Z,998.42
2018-01-12T09:04:47.729Z,998.41
2018-01-12T09:05:47.697Z,998.42
2018-01-12T09:06:47.691Z,998.39
2018-01-12T09:07:47.687Z,998.4
2018-01-12T09:08:47.680Z,998.4
2018-01-12T09:09:47.672Z,998.4
2018-01-12T09:10:47.664Z,998.4
2018-01-12T09:11:47.667Z,998.42
2018-01-12T09:12:47.667Z,998.41
2018-01-12T09:13:47.650Z,998.44
2018-01-12T09:14:47.648Z,998.47
2018-01-12T09:15:47.649Z,998.45
2018-01-12T09:16:47.627Z,998.48
2018-01-12T09:17:47.622Z,998.49
2018-01-12T09:18:47.621Z,998.53
2018-01-12T09:19:47.609Z,998.55
2018-01-12T09:20:47.601Z,998.51
2018-01-12T09:21:47.597Z,998.56
2018-01-12T09:22:47.592Z,998.56
2018-01-12T09:23:47.592Z,998.57
2018-01-12T09:24:47.577Z,998.58
2018-01-12T09:25:47.577Z,998.58
2018-01-12T09:26:47.566Z,998.57
2018-01-12T09:27:47.557Z,998.61
2018-01-12T09:28:47.550Z,998.63
2018-01-12T09:29:47.547Z,998.64
2018-01-12T09:30:47.550Z,998.61
2018-01-12T09:31:47.551Z,998.68
2018-01-12T09:32:47.529Z,998.69
2018-01-12T09:33:47.520Z,998.72
2018-01-12T09:34:47.515Z,998.73
2018-01-12T09:35:47.524Z,998.7
2018-01-12T09:36:47.507Z,998.68
2018-01-12T09:37:47.495Z,998.74
2018-01-12T09:38:47.501Z,998.75
2018-01-12T09:39:47.488Z,998.78
2018-01-12T09:40:49.534Z,998.78
2018-01-12T09:41:47.469Z,998.81
2018-01-12T09:42:47.463Z,998.84
2018-01-12T09:43:47.461Z,998.83
2018-01-12T09:44:47.453Z,998.78
2018-01-12T09:45:47.446Z,998.81
2018-01-12T09:46:47.447Z,998.79
2018-01-12T09:47:47.431Z,998.79
2018-01-12T09:48:47.429Z,998.8
2018-01-12T09:49:47.432Z,998.78
2018-01-12T09:50:47.413Z,998.79
2018-01-12T09:51:47.405Z,998.79
2018-01-12T09:52:47.504Z,998.8
2018-01-12T09:53:47.393Z,998.8
2018-01-12T09:54:47.388Z,998.82
2018-01-12T09:55:47.380Z,998.8
2018-01-12T09:56:47.374Z,998.8
2018-01-12T09:57:47.378Z,998.8
2018-01-12T09:58:47.360Z,998.81
2018-01-12T09:59:47.355Z,998.88
2018-01-12T10:00:47.347Z,998.87
2018-01-12T10:01:47.343Z,998.92
2018-01-12T10:02:47.334Z,998.89
2018-01-12T10:03:47.329Z,998.84
2018-01-12T10:04:47.327Z,998.87
2018-01-12T10:05:47.317Z,998.89
2018-01-12T10:06:47.312Z,998.9
2018-01-12T10:07:47.301Z,998.87
2018-01-12T10:08:47.297Z,998.87
2018-01-12T10:09:47.291Z,998.91
2018-01-12T10:10:47.285Z,998.82
2018-01-12T10:11:47.281Z,998.84
2018-01-12T10:12:47.273Z,998.84
2018-01-12T10:13:47.266Z,998.86
2018-01-12T10:14:47.260Z,998.87
2018-01-12T10:15:47.254Z,998.86
2018-01-12T10:16:47.246Z,998.87
2018-01-12T10:17:47.240Z,998.87
2018-01-12T10:18:47.285Z,998.84
2018-01-12T10:19:47.295Z,998.85
2018-01-12T10:20:47.224Z,998.88
2018-01-12T10:21:47.217Z,998.86
2018-01-12T10:22:47.211Z,998.89
2018-01-12T10:52:43.023Z,998.8
2018-01-12T10:53:40.308Z,998.78
2018-01-12T10:54:40.295Z,998.78
2018-01-12T10:55:40.287Z,998.85
2018-01-12T10:56:40.271Z,998.8
2018-01-12T10:57:40.261Z,998.82
2018-01-12T10:58:40.251Z,998.81
2018-01-12T10:59:40.241Z,998.81
2018-01-12T11:00:40.232Z,998.82
2018-01-12T11:01:40.224Z,998.83
2018-01-12T11:02:40.217Z,998.83
2018-01-12T11:03:40.206Z,998.85
2018-01-12T11:04:40.198Z,998.85
2018-01-12T11:05:40.193Z,998.86
2018-01-12T11:06:40.182Z,998.85
2018-01-12T11:07:40.178Z,998.89
2018-01-12T11:08:40.168Z,998.89
2018-01-12T11:09:40.162Z,998.92
2018-01-12T11:10:40.152Z,998.88
2018-01-12T11:11:40.147Z,998.87
2018-01-12T11:12:40.140Z,998.9
2018-01-12T11:13:40.131Z,998.88
2018-01-12T11:14:40.125Z,998.9
2018-01-12T11:15:40.118Z,998.91
2018-01-12T11:16:40.114Z,998.9
2018-01-12T11:17:40.106Z,998.92
2018-01-12T11:18:40.099Z,998.89
2018-01-12T11:19:40.094Z,998.9
2018-01-12T11:20:40.086Z,998.87
2018-01-12T11:21:40.083Z,998.88
2018-01-12T11:22:40.075Z,998.89
2018-01-12T11:23:40.072Z,998.87
2018-01-12T11:24:40.062Z,998.85
2018-01-12T11:25:40.057Z,998.83
2018-01-12T11:26:40.052Z,998.82
2018-01-12T11:27:40.047Z,998.88
2018-01-12T11:28:40.039Z,998.85
2018-01-12T11:29:40.038Z,998.85
2018-01-12T11:30:40.036Z,998.85
2018-01-12T11:31:40.026Z,998.88
2018-01-12T11:32:40.017Z,998.9
2018-01-12T11:33:40.012Z,998.9
2018-01-12T11:34:40.007Z,998.9
2018-01-12T11:35:40.042Z,998.91
2018-01-12T11:36:39.998Z,998.91
2018-01-12T11:37:39.993Z,998.89
2018-01-12T11:38:39.993Z,998.86
2018-01-12T11:39:39.991Z,998.85
2018-01-12T11:40:39.983Z,998.81
2018-01-12T11:41:39.975Z,998.83
2018-01-12T11:42:39.989Z,998.88
2018-01-12T11:43:39.968Z,998.77
2018-01-12T11:44:39.953Z,998.77
2018-01-12T11:45:39.950Z,998.79
2018-01-12T11:46:39.951Z,998.78
2018-01-12T11:47:39.940Z,998.78
2018-01-12T11:48:39.938Z,998.76
2018-01-12T11:49:39.927Z,998.74
2018-01-12T11:50:39.925Z,998.72
2018-01-12T11:51:39.932Z,998.69
2018-01-12T11:52:39.920Z,998.69
2018-01-12T11:53:39.916Z,998.69
2018-01-12T11:54:39.902Z,998.75
2018-01-12T11:55:39.894Z,998.73
2018-01-12T11:56:39.890Z,998.75
2018-01-12T11:57:39.888Z,998.74
2018-01-12T11:58:39.881Z,998.7
2018-01-12T11:59:39.883Z,998.7
2018-01-12T12:00:39.868Z,998.71
2018-01-12T12:01:39.870Z,998.72
2018-01-12T12:02:39.859Z,998.72
2018-01-12T12:03:39.853Z,998.72
2018-01-12T12:04:39.849Z,998.75
2018-01-12T12:05:39.842Z,998.72
2018-01-12T12:06:39.837Z,998.72
2018-01-12T12:07:39.832Z,998.72
2018-01-12T12:08:39.827Z,998.72
2018-01-12T12:09:39.820Z,998.73
2018-01-12T12:10:39.817Z,998.73
2018-01-12T12:11:39.812Z,998.72
2018-01-12T12:12:39.803Z,998.74
2018-01-12T12:13:39.802Z,998.71
2018-01-12T12:14:39.794Z,998.7
2018-01-12T12:15:39.789Z,998.68
2018-01-12T12:16:39.782Z,998.74
2018-01-12T12:17:39.777Z,998.7
2018-01-12T12:18:39.771Z,998.74
2018-01-12T12:19:39.769Z,998.7
2018-01-12T12:20:39.766Z,998.7
2018-01-12T12:21:39.756Z,998.71
2018-01-12T12:22:39.751Z,998.68
2018-01-12T12:23:39.744Z,998.67
2018-01-12T12:24:39.739Z,998.68
2018-01-12T12:25:39.733Z,998.68
2018-01-12T12:26:39.727Z,998.71
2018-01-12T12:27:39.722Z,998.68
2018-01-12T12:28:40.518Z,998.66
2018-01-12T12:29:39.712Z,998.64
2018-01-12T12:30:39.706Z,998.65
2018-01-12T12:31:39.705Z,998.63
2018-01-12T12:32:39.694Z,998.62
2018-01-12T12:33:39.689Z,998.64
2018-01-12T12:34:39.681Z,998.68
2018-01-12T12:35:39.677Z,998.64
2018-01-12T12:36:39.672Z,998.62
2018-01-12T12:37:39.665Z,998.65
2018-01-12T12:38:39.660Z,998.67
2018-01-12T12:39:39.655Z,998.65
2018-01-12T12:40:39.648Z,998.7
2018-01-12T12:41:39.653Z,998.72
2018-01-12T12:42:39.648Z,998.7
2018-01-12T12:43:39.636Z,998.71
2018-01-12T12:44:39.640Z,998.69
2018-01-12T12:45:39.622Z,998.7
2018-01-12T12:46:39.617Z,998.76
2018-01-12T12:47:39.621Z,998.73
2018-01-12T12:48:39.621Z,998.72
2018-01-12T12:49:39.598Z,998.7
2018-01-12T12:50:39.592Z,998.73
2018-01-12T12:51:39.588Z,998.74
2018-01-12T12:52:39.589Z,998.75
2018-01-12T12:53:39.588Z,998.74
2018-01-12T12:54:39.579Z,998.72
2018-01-12T12:55:39.577Z,998.73
2018-01-12T12:56:39.571Z,998.76
2018-01-12T12:57:39.568Z,998.77
2018-01-12T12:58:39.563Z,998.75
2018-01-12T12:59:39.544Z,998.75
2018-01-12T13:00:39.551Z,998.68